createdAt,value
2022-11-05T00:00:33.725Z,6.57
2022-11-05T00:03:29.749Z,5.45
2022-11-05T00:06:16.536Z,4.80
2022-11-05T00:09:02.750Z,3.75
2022-11-05T00:11:49.271Z,3.15
2022-11-05T00:14:35.567Z,2.67
2022-11-05T00:17:03.418Z,1.90
2022-11-05T00:19:30.957Z,1.88
2022-11-05T00:22:17.361Z,1.98
2022-11-05T00:25:03.626Z,1.65
2022-11-05T00:27:34.068Z,3.13
2022-11-05T00:30:04.858Z,1.80
2022-11-05T00:32:32.870Z,1.85
2022-11-05T00:35:00.558Z,2.40
2022-11-05T00:37:28.943Z,2.03
2022-11-05T00:39:57.765Z,1.70
2022-11-05T00:42:44.264Z,2.40
2022-11-05T00:45:11.916Z,2.20
2022-11-05T00:47:58.986Z,4.00
2022-11-05T00:50:26.960Z,2.55
2022-11-05T00:52:56.016Z,2.53
2022-11-05T00:55:30.102Z,1.85
2022-11-05T00:57:58.540Z,2.13
2022-11-05T01:00:27.038Z,2.35
2022-11-05T01:02:57.671Z,2.20
2022-11-05T01:05:25.385Z,2.70
2022-11-05T01:07:53.747Z,2.50
2022-11-05T01:10:21.962Z,1.90
2022-11-05T01:12:49.973Z,2.40
2022-11-05T01:15:18.023Z,2.80
2022-11-05T01:17:45.935Z,3.28
2022-11-05T01:20:13.622Z,2.85
2022-11-05T01:22:41.485Z,2.80
2022-11-05T01:25:09.479Z,2.75
2022-11-05T01:27:37.760Z,2.83
2022-11-05T01:30:06.316Z,2.60
2022-11-05T01:32:35.235Z,3.42
2022-11-05T01:35:03.242Z,3.35
2022-11-05T01:37:31.038Z,2.70
2022-11-05T01:39:58.747Z,3.25
2022-11-05T01:42:46.367Z,3.05
2022-11-05T01:45:15.834Z,3.03
2022-11-05T01:47:47.274Z,2.78
2022-11-05T01:50:33.928Z,3.38
2022-11-05T01:53:06.377Z,3.10
2022-11-05T01:55:36.327Z,3.08
2022-11-05T01:58:05.825Z,4.22
2022-11-05T02:00:33.937Z,3.78
2022-11-05T02:03:02.366Z,4.35
2022-11-05T02:05:30.334Z,4.03
2022-11-05T02:07:58.401Z,4.70
2022-11-05T02:10:26.399Z,4.75
2022-11-05T02:12:54.509Z,5.03
2022-11-05T02:15:48.310Z,4.00
2022-11-05T02:18:21.632Z,7.15
2022-11-05T02:21:15.021Z,5.20
2022-11-05T02:23:55.020Z,3.50
2022-11-05T02:26:37.687Z,2.92
2022-11-05T02:29:14.812Z,3.17
2022-11-05T02:31:48.368Z,2.78
2022-11-05T02:34:30.201Z,2.75
2022-11-05T02:37:00.609Z,2.70
2022-11-05T02:39:47.230Z,2.88
2022-11-05T02:42:27.074Z,2.88
2022-11-05T02:45:04.082Z,2.58
2022-11-05T02:47:42.445Z,2.55
2022-11-05T02:50:33.407Z,2.00
2022-11-05T02:53:04.081Z,2.20
2022-11-05T02:55:37.880Z,1.83
2022-11-05T02:58:05.936Z,2.45
2022-11-05T03:00:40.809Z,1.80
2022-11-05T03:03:11.347Z,1.98
2022-11-05T03:05:44.105Z,2.03
2022-11-05T03:08:16.302Z,1.80
2022-11-05T03:10:48.047Z,1.63
2022-11-05T03:13:23.430Z,2.08
2022-11-05T03:15:57.082Z,1.77
2022-11-05T03:18:29.569Z,1.92
2022-11-05T03:21:05.740Z,2.35
2022-11-05T03:23:46.261Z,2.00
2022-11-05T03:26:34.302Z,2.20
2022-11-05T03:29:03.505Z,2.00
2022-11-05T03:31:31.678Z,1.98
2022-11-05T03:34:00.191Z,1.90
2022-11-05T03:36:31.482Z,1.92
2022-11-05T03:39:00.085Z,2.17
2022-11-05T03:41:28.766Z,2.17
2022-11-05T03:43:58.126Z,1.80
2022-11-05T03:46:28.503Z,1.75
2022-11-05T03:48:57.436Z,2.10
2022-11-05T03:51:33.497Z,2.22
2022-11-05T03:54:02.344Z,1.75
2022-11-05T03:56:45.293Z,1.75
2022-11-05T03:59:13.245Z,1.80
2022-11-05T04:01:42.685Z,1.52
2022-11-05T04:04:10.799Z,1.70
2022-11-05T04:06:57.478Z,1.80
2022-11-05T04:09:43.993Z,1.92
2022-11-05T04:12:30.557Z,1.85
2022-11-05T04:14:58.173Z,2.03
2022-11-05T04:17:26.086Z,2.40
2022-11-05T04:20:12.195Z,2.33
2022-11-05T04:22:58.743Z,2.45
2022-11-05T04:25:26.415Z,2.63
2022-11-05T04:27:58.952Z,3.00
2022-11-05T04:30:26.611Z,2.58
2022-11-05T04:33:02.118Z,2.45
2022-11-05T04:35:31.140Z,3.10
2022-11-05T04:37:59.429Z,3.28
2022-11-05T04:40:27.111Z,3.63
2022-11-05T04:42:55.723Z,4.13
2022-11-05T04:45:27.609Z,3.70
2022-11-05T04:47:55.554Z,4.43
2022-11-05T04:50:23.380Z,4.40
2022-11-05T04:52:51.454Z,4.90
2022-11-05T04:55:19.450Z,8.50
2022-11-05T04:57:51.720Z,6.63
2022-11-05T05:02:47.236Z,9.55
2022-11-05T05:05:15.127Z,17.73
2022-11-05T05:07:43.005Z,65.82
2022-11-05T05:10:10.943Z,28.10
2022-11-05T05:12:58.013Z,65.18
2022-11-05T05:15:25.865Z,13.27
2022-11-05T05:17:53.711Z,10.13
2022-11-05T05:20:40.093Z,7.55
2022-11-05T05:23:08.209Z,37.42
2022-11-05T05:25:35.905Z,60.00
2022-11-05T05:28:03.904Z,8.65
2022-11-05T05:30:31.531Z,8.93
2022-11-05T05:33:01.997Z,12.88
2022-11-05T05:35:29.642Z,10.82
2022-11-05T05:37:57.861Z,16.85
2022-11-05T05:40:25.477Z,13.52
2022-11-05T05:42:56.485Z,37.25
2022-11-05T05:45:24.083Z,19.35
2022-11-05T05:47:51.863Z,7.75
2022-11-05T05:50:19.417Z,7.20
2022-11-05T05:52:53.202Z,7.18
2022-11-05T05:55:20.825Z,8.52
2022-11-05T05:57:48.743Z,7.53
2022-11-05T06:00:16.512Z,8.75
2022-11-05T06:02:44.462Z,8.43
2022-11-05T06:05:13.582Z,7.82
2022-11-05T06:07:42.369Z,6.57
2022-11-05T06:10:10.014Z,5.95
2022-11-05T06:12:39.328Z,6.07
2022-11-05T06:15:06.975Z,5.40
2022-11-05T06:17:34.843Z,5.47
2022-11-05T06:20:02.489Z,5.20
2022-11-05T06:22:30.543Z,4.88
2022-11-05T06:24:58.068Z,5.65
2022-11-05T06:27:26.015Z,5.85
2022-11-05T06:29:53.536Z,6.15
2022-11-05T06:32:21.426Z,7.22
2022-11-05T06:34:48.945Z,7.43
2022-11-05T06:37:16.874Z,8.48
2022-11-05T06:39:44.542Z,9.68
2022-11-05T06:42:18.291Z,8.60
2022-11-05T06:44:46.755Z,92.53
2022-11-05T06:47:14.688Z,55.90
2022-11-05T06:49:42.202Z,39.33
2022-11-05T06:52:10.177Z,16.50
2022-11-05T06:54:37.711Z,13.10
2022-11-05T06:57:06.318Z,15.85
2022-11-05T06:59:34.439Z,32.72
2022-11-05T07:02:02.367Z,9.10
2022-11-05T07:04:30.020Z,16.08
2022-11-05T07:06:59.810Z,9.95
2022-11-05T07:09:28.065Z,6.90
2022-11-05T07:11:56.205Z,9.50
2022-11-05T07:14:23.812Z,13.13
2022-11-05T07:16:51.731Z,8.77
2022-11-05T07:19:19.283Z,7.45
2022-11-05T07:21:48.715Z,7.53
2022-11-05T07:24:16.364Z,7.20
2022-11-05T07:26:44.466Z,10.20
2022-11-05T07:29:12.109Z,7.20
2022-11-05T07:31:39.926Z,5.82
2022-11-05T07:34:07.457Z,10.27
2022-11-05T07:36:35.842Z,8.18
2022-11-05T07:39:03.368Z,8.02
2022-11-05T07:41:31.500Z,5.60
2022-11-05T07:43:59.055Z,5.75
2022-11-05T07:46:26.993Z,20.83
2022-11-05T07:48:54.535Z,16.30
2022-11-05T07:51:22.940Z,6.88
2022-11-05T07:53:50.639Z,6.70
2022-11-05T07:56:18.574Z,5.90
2022-11-05T07:58:46.345Z,6.30
2022-11-05T08:01:14.544Z,9.77
2022-11-05T08:03:42.315Z,6.57
2022-11-05T08:06:10.492Z,7.10
2022-11-05T08:08:38.129Z,7.20
2022-11-05T08:11:06.879Z,6.97
2022-11-05T08:13:34.974Z,8.20
2022-11-05T08:16:03.257Z,8.60
2022-11-05T08:18:31.708Z,8.23
2022-11-05T08:21:00.410Z,42.35
2022-11-05T08:23:28.506Z,9.90
2022-11-05T08:25:57.010Z,12.77
2022-11-05T08:28:25.917Z,12.77
2022-11-05T08:30:54.915Z,12.45
2022-11-05T08:33:22.963Z,11.93
2022-11-05T08:35:50.950Z,12.15
2022-11-05T08:38:19.211Z,16.67
2022-11-05T08:40:53.879Z,26.42
2022-11-05T08:43:21.578Z,11.25
2022-11-05T08:45:49.689Z,10.88
2022-11-05T08:48:18.641Z,12.10
2022-11-05T08:50:47.395Z,14.02
2022-11-05T08:53:15.937Z,13.85
2022-11-05T08:55:44.266Z,16.83
2022-11-05T08:58:13.049Z,13.10
2022-11-05T09:00:41.111Z,15.48
2022-11-05T09:03:09.987Z,14.63
2022-11-05T09:05:39.690Z,15.40
2022-11-05T09:08:14.505Z,15.10
2022-11-05T09:10:43.095Z,14.65
2022-11-05T09:13:17.882Z,18.65
2022-11-05T09:15:46.780Z,15.18
2022-11-05T09:18:14.801Z,14.23
2022-11-05T09:20:43.354Z,20.23
2022-11-05T09:23:12.109Z,16.20
2022-11-05T09:25:40.170Z,21.77
2022-11-05T09:28:08.871Z,17.33
2022-11-05T09:30:39.994Z,16.73
2022-11-05T09:33:07.968Z,17.08
2022-11-05T09:35:38.245Z,21.38
2022-11-05T09:38:05.879Z,20.40
2022-11-05T09:40:37.550Z,21.90
2022-11-05T09:43:05.774Z,20.48
2022-11-05T09:45:34.511Z,19.65
2022-11-05T09:48:08.725Z,16.67
2022-11-05T09:50:41.043Z,14.57
2022-11-05T09:53:11.311Z,16.63
2022-11-05T09:55:43.910Z,15.20
2022-11-05T09:58:34.795Z,13.60
2022-11-05T10:01:04.020Z,18.70
2022-11-05T10:03:31.958Z,18.60
2022-11-05T10:06:04.283Z,14.70
2022-11-05T10:08:33.511Z,14.05
2022-11-05T10:11:05.866Z,12.93
2022-11-05T10:13:40.917Z,16.25
2022-11-05T10:16:16.263Z,18.92
2022-11-05T10:18:45.601Z,17.45
2022-11-05T10:21:17.166Z,16.27
2022-11-05T10:23:45.936Z,15.52
2022-11-05T10:26:20.078Z,14.02
2022-11-05T10:28:48.197Z,16.88
2022-11-05T10:31:18.156Z,16.08
2022-11-05T10:33:49.631Z,16.73
2022-11-05T10:36:20.302Z,16.15
2022-11-05T10:38:47.802Z,17.90
2022-11-05T10:41:34.457Z,17.60
2022-11-05T10:44:13.496Z,16.58
2022-11-05T10:46:54.399Z,18.75
2022-11-05T10:49:40.418Z,19.63
2022-11-05T10:52:17.565Z,20.05
2022-11-05T10:54:45.856Z,20.20
2022-11-05T10:57:28.694Z,22.02
2022-11-05T11:00:16.532Z,21.00
2022-11-05T11:02:46.522Z,19.92
2022-11-05T11:05:40.601Z,17.70
2022-11-05T11:08:11.215Z,19.83
2022-11-05T11:10:42.111Z,19.45
2022-11-05T11:13:20.376Z,18.48
2022-11-05T11:15:50.793Z,17.58
2022-11-05T11:18:25.672Z,20.33
2022-11-05T11:20:54.539Z,25.95
2022-11-05T11:23:22.384Z,17.95
2022-11-05T11:25:53.197Z,22.20
2022-11-05T11:28:26.418Z,44.22
2022-11-05T11:30:57.831Z,17.65
2022-11-05T11:33:27.664Z,42.38
2022-11-05T11:35:55.577Z,32.55
2022-11-05T11:38:24.450Z,35.05
2022-11-05T11:40:52.344Z,25.23
2022-11-05T11:43:30.930Z,23.10
2022-11-05T11:46:04.842Z,23.48
2022-11-05T11:48:35.894Z,30.08
2022-11-05T11:51:23.771Z,19.08
2022-11-05T11:53:56.821Z,17.10
2022-11-05T11:56:24.462Z,23.08
2022-11-05T11:58:53.478Z,21.85
2022-11-05T12:01:39.882Z,20.75
2022-11-05T12:04:31.773Z,18.38
2022-11-05T12:07:05.798Z,24.70
2022-11-05T12:09:52.874Z,28.67
2022-11-05T12:12:29.493Z,25.48
2022-11-05T12:15:00.734Z,21.27
2022-11-05T12:17:47.193Z,27.33
2022-11-05T12:20:20.674Z,51.08
2022-11-05T12:23:06.512Z,36.50
2022-11-05T12:25:35.235Z,35.67
2022-11-05T12:28:10.805Z,32.00
2022-11-05T12:30:56.120Z,29.75
2022-11-05T12:33:23.731Z,35.42
2022-11-05T12:35:57.398Z,34.67
2022-11-05T12:38:37.863Z,29.02
2022-11-05T12:41:17.549Z,34.65
2022-11-05T12:43:53.057Z,22.67
2022-11-05T12:46:24.026Z,28.23
2022-11-05T12:49:14.727Z,27.65
2022-11-05T12:51:55.886Z,27.55
2022-11-05T12:54:26.950Z,28.17
2022-11-05T12:56:57.262Z,23.33
2022-11-05T12:59:24.765Z,19.85
2022-11-05T13:02:03.573Z,23.17
2022-11-05T13:04:35.154Z,22.08
2022-11-05T13:07:04.886Z,24.13
2022-11-05T13:09:43.289Z,24.55
2022-11-05T13:12:15.551Z,23.75
2022-11-05T13:14:43.414Z,25.27
2022-11-05T13:17:13.258Z,25.08
2022-11-05T13:19:41.091Z,25.73
2022-11-05T13:22:27.326Z,24.50
2022-11-05T13:25:00.110Z,28.20
2022-11-05T13:27:27.822Z,39.00
2022-11-05T13:30:06.055Z,30.63
2022-11-05T13:32:37.007Z,30.05
2022-11-05T13:35:07.171Z,30.67
2022-11-05T13:38:00.332Z,28.73
2022-11-05T13:40:39.355Z,28.02
2022-11-05T13:43:16.863Z,27.08
2022-11-05T13:46:05.947Z,24.58
2022-11-05T13:48:54.118Z,25.10
2022-11-05T13:51:37.794Z,24.67
2022-11-05T13:54:25.777Z,16.75
2022-11-05T13:57:19.485Z,16.30
2022-11-05T14:00:06.171Z,15.40
2022-11-05T14:03:06.529Z,18.55
2022-11-05T14:05:35.905Z,19.50
2022-11-05T14:08:10.960Z,21.67
2022-11-05T14:10:46.409Z,15.40
2022-11-05T14:13:17.060Z,17.30
2022-11-05T14:15:58.419Z,18.90
2022-11-05T14:18:35.422Z,18.65
2022-11-05T14:21:04.314Z,20.30
2022-11-05T14:23:32.184Z,27.25
2022-11-05T14:26:16.690Z,18.75
2022-11-05T14:28:46.335Z,18.60
2022-11-05T14:31:13.994Z,22.60
2022-11-05T14:33:54.505Z,18.85
2022-11-05T14:36:22.428Z,17.73
2022-11-05T14:38:51.303Z,24.65
2022-11-05T14:41:19.971Z,39.00
2022-11-05T14:43:50.207Z,133.07
2022-11-05T14:46:17.923Z,95.10
2022-11-05T14:48:52.047Z,85.32
2022-11-05T14:51:26.120Z,51.35
2022-11-05T14:54:12.534Z,52.75
2022-11-05T14:56:56.395Z,24.73
2022-11-05T14:59:24.705Z,29.60
2022-11-05T15:01:55.544Z,53.92
2022-11-05T15:04:30.789Z,82.20
2022-11-05T15:07:04.798Z,73.22
2022-11-05T15:09:41.242Z,57.53
2022-11-05T15:12:19.840Z,101.63
2022-11-05T15:14:47.354Z,92.03
2022-11-05T15:17:21.579Z,93.43
2022-11-05T15:19:49.796Z,88.60
2022-11-05T15:22:40.981Z,63.28
2022-11-05T15:25:16.798Z,83.20
2022-11-05T15:27:53.992Z,98.13
2022-11-05T15:30:22.875Z,58.15
2022-11-05T15:32:51.015Z,86.22
2022-11-05T15:35:27.160Z,40.45
2022-11-05T15:38:01.775Z,38.83
2022-11-05T15:40:33.048Z,31.88
2022-11-05T15:43:19.961Z,33.40
2022-11-05T15:46:00.994Z,68.97
2022-11-05T15:48:29.111Z,26.02
2022-11-05T15:50:56.968Z,89.57
2022-11-05T15:53:51.497Z,93.70
2022-11-05T15:56:23.067Z,48.15
2022-11-05T15:58:54.085Z,52.85
2022-11-05T16:13:47.091Z,21.60
2022-11-05T16:16:15.119Z,19.60
2022-11-05T16:18:45.591Z,20.92
2022-11-05T16:21:22.699Z,25.20
2022-11-05T16:23:50.355Z,21.95
2022-11-05T16:27:02.307Z,29.83
2022-11-05T16:29:32.699Z,32.08
2022-11-05T16:32:01.816Z,40.70
2022-11-05T16:34:34.182Z,47.90
2022-11-05T16:37:02.119Z,63.65
2022-11-05T16:39:29.767Z,63.83
2022-11-05T16:41:57.686Z,53.22
2022-11-05T16:44:25.612Z,29.00
2022-11-05T16:46:53.545Z,29.27
2022-11-05T16:49:21.290Z,24.50
2022-11-05T16:51:49.197Z,28.33
2022-11-05T16:54:16.790Z,43.22
2022-11-05T16:56:46.964Z,40.67
2022-11-05T16:59:15.251Z,35.28
2022-11-05T17:01:43.660Z,33.45
2022-11-05T17:04:14.653Z,23.95
2022-11-05T17:06:44.045Z,23.50
2022-11-05T17:09:11.661Z,23.13
2022-11-05T17:11:39.486Z,22.13
2022-11-05T17:14:13.150Z,20.90
2022-11-05T17:16:41.518Z,25.75
2022-11-05T17:19:14.571Z,53.60
2022-11-05T17:21:42.614Z,34.40
2022-11-05T17:24:10.334Z,38.80
2022-11-05T17:26:38.650Z,49.83
2022-11-05T17:29:06.227Z,42.30
2022-11-05T17:31:34.098Z,30.48
2022-11-05T17:34:01.655Z,42.65
2022-11-05T17:36:29.450Z,45.22
2022-11-05T17:38:57.103Z,54.00
2022-11-05T17:41:25.367Z,54.97
2022-11-05T17:43:56.995Z,124.50
2022-11-05T17:46:25.177Z,37.42
2022-11-05T17:48:52.795Z,21.15
2022-11-05T17:51:20.877Z,16.55
2022-11-05T17:53:49.392Z,15.30
2022-11-05T17:56:28.778Z,14.93
2022-11-05T17:58:56.862Z,20.42
2022-11-05T18:01:36.006Z,23.23
2022-11-05T18:04:09.067Z,23.95
2022-11-05T18:06:38.034Z,24.02
2022-11-05T18:09:06.888Z,23.55
2022-11-05T18:11:35.359Z,40.42
2022-11-05T18:14:03.850Z,24.23
2022-11-05T18:16:31.772Z,23.05
2022-11-05T18:18:59.536Z,21.10
2022-11-05T18:21:27.338Z,21.52
2022-11-05T18:23:55.196Z,18.33
2022-11-05T18:26:23.246Z,20.98
2022-11-05T18:28:50.869Z,18.92
2022-11-05T18:31:20.642Z,19.40
2022-11-05T18:33:49.225Z,18.17
2022-11-05T18:36:18.274Z,20.00
2022-11-05T18:38:46.066Z,21.05
2022-11-05T18:41:14.250Z,21.75
2022-11-05T18:43:42.167Z,20.52
2022-11-05T18:46:19.461Z,23.70
2022-11-05T18:48:58.402Z,22.85
2022-11-05T18:51:26.612Z,23.00
2022-11-05T18:53:55.124Z,25.98
2022-11-05T18:56:23.227Z,26.88
2022-11-05T18:59:03.320Z,25.35
2022-11-05T19:01:39.312Z,19.25
2022-11-05T19:04:07.182Z,22.00
2022-11-05T19:06:35.898Z,20.08
2022-11-05T19:09:03.827Z,20.75
2022-11-05T19:11:31.770Z,21.60
2022-11-05T19:13:59.898Z,21.75
2022-11-05T19:16:28.825Z,22.02
2022-11-05T19:18:58.937Z,23.60
2022-11-05T19:21:27.410Z,25.35
2022-11-05T19:23:56.510Z,22.42
2022-11-05T19:26:28.592Z,23.80
2022-11-05T19:29:00.895Z,23.42
2022-11-05T19:31:29.192Z,22.15
2022-11-05T19:33:57.164Z,22.33
2022-11-05T19:36:25.811Z,22.15
2022-11-05T19:38:58.026Z,21.48
2022-11-05T19:41:26.101Z,22.17
2022-11-05T19:43:55.026Z,26.55
2022-11-05T19:46:23.595Z,25.67
2022-11-05T19:48:51.599Z,24.88
2022-11-05T19:51:27.712Z,24.25
2022-11-05T19:53:55.846Z,24.63
2022-11-05T19:56:24.919Z,25.75
2022-11-05T19:58:53.276Z,22.38
2022-11-05T20:01:22.559Z,23.63
2022-11-05T20:03:51.849Z,23.83
2022-11-05T20:06:21.306Z,24.88
2022-11-05T20:11:37.825Z,20.25
2022-11-05T20:14:05.941Z,25.20
2022-11-05T20:16:39.085Z,20.92
2022-11-05T20:19:07.641Z,23.65
2022-11-05T20:21:35.832Z,23.25
2022-11-05T20:24:03.614Z,22.63
2022-11-05T20:26:31.775Z,20.95
2022-11-05T20:28:59.660Z,21.48
2022-11-05T20:31:27.666Z,23.55
2022-11-05T20:33:55.323Z,22.73
2022-11-05T20:36:24.515Z,22.98
2022-11-05T20:38:58.043Z,22.58
2022-11-05T20:41:26.673Z,21.63
2022-11-05T20:43:54.560Z,23.05
2022-11-05T20:46:23.092Z,21.00
2022-11-05T20:48:50.765Z,20.80
2022-11-05T20:51:19.699Z,20.13
2022-11-05T20:53:47.757Z,23.48
2022-11-05T20:56:20.089Z,24.73
2022-11-05T21:01:16.768Z,26.38
2022-11-05T21:03:45.367Z,22.20
2022-11-05T21:06:13.519Z,21.65
2022-11-05T21:08:41.339Z,21.55
2022-11-05T21:11:10.114Z,23.10
2022-11-05T21:13:38.035Z,22.58
2022-11-05T21:16:06.875Z,21.77
2022-11-05T21:18:35.056Z,23.10
2022-11-05T21:21:10.140Z,23.02
2022-11-05T21:23:37.757Z,24.60
2022-11-05T21:26:10.214Z,24.90
2022-11-05T21:28:38.576Z,22.90
2022-11-05T21:31:07.109Z,22.85
2022-11-05T21:33:34.718Z,22.65
2022-11-05T21:36:07.412Z,22.88
2022-11-05T21:38:35.045Z,20.98
2022-11-05T21:41:03.353Z,24.35
2022-11-05T21:43:31.050Z,26.02
2022-11-05T21:46:01.230Z,23.83
2022-11-05T21:48:28.884Z,24.70
2022-11-05T21:51:15.935Z,24.23
2022-11-05T21:54:02.294Z,24.30
2022-11-05T21:56:48.859Z,24.35
2022-11-05T21:59:36.493Z,25.88
2022-11-05T22:02:04.907Z,24.20
2022-11-05T22:04:33.794Z,23.65
2022-11-05T22:07:01.639Z,24.73
2022-11-05T22:09:29.675Z,21.85
2022-11-05T22:11:57.502Z,24.42
2022-11-05T22:14:25.178Z,25.13
2022-11-05T22:16:52.972Z,24.92
2022-11-05T22:19:20.776Z,23.92
2022-11-05T22:21:49.203Z,23.27
2022-11-05T22:24:17.282Z,27.33
2022-11-05T22:26:45.739Z,24.67
2022-11-05T22:29:13.733Z,28.13
2022-11-05T22:31:41.681Z,25.75
2022-11-05T22:34:10.658Z,23.73
2022-11-05T22:36:38.630Z,22.50
2022-11-05T22:39:06.280Z,25.83
2022-11-05T22:41:34.458Z,26.33
2022-11-05T22:44:03.869Z,23.67
2022-11-05T22:46:31.813Z,27.88
2022-11-05T22:49:00.162Z,27.50
2022-11-05T22:51:29.740Z,24.73
2022-11-05T22:53:58.025Z,24.25
2022-11-05T22:56:28.282Z,22.58
2022-11-05T22:58:56.087Z,21.63
2022-11-05T23:01:24.503Z,22.85
2022-11-05T23:03:53.276Z,22.88
2022-11-05T23:06:44.175Z,20.35
2022-11-05T23:09:36.179Z,22.70
2022-11-05T23:12:05.342Z,23.27
2022-11-05T23:14:33.082Z,24.33
2022-11-05T23:17:19.846Z,27.20
2022-11-05T23:20:26.088Z,23.58
2022-11-05T23:23:12.571Z,30.10
2022-11-05T23:25:40.202Z,23.88
2022-11-05T23:28:09.987Z,23.48
2022-11-05T23:31:01.778Z,24.00
2022-11-05T23:33:30.145Z,24.50
2022-11-05T23:36:16.169Z,23.15
2022-11-05T23:38:44.064Z,21.42
2022-11-05T23:41:30.136Z,23.52
2022-11-05T23:44:16.496Z,21.80
2022-11-05T23:47:02.807Z,22.50
2022-11-05T23:49:30.743Z,21.35
2022-11-05T23:51:58.288Z,20.50
2022-11-05T23:54:26.318Z,20.55
2022-11-05T23:56:53.809Z,19.20
2022-11-05T23:59:21.710Z,20.02
